createdAt,value
2018-04-13T00:00:59.623Z,14.80
2018-04-13T00:03:27.959Z,14.80
2018-04-13T00:05:55.504Z,14.80
2018-04-13T00:08:23.071Z,14.80
2018-04-13T00:10:50.629Z,14.80
2018-04-13T00:13:18.202Z,14.80
2018-04-13T00:15:46.544Z,14.80
2018-04-13T00:18:14.883Z,14.80
2018-04-13T00:20:43.202Z,14.80
2018-04-13T00:23:10.771Z,14.80
2018-04-13T00:25:38.327Z,14.90
2018-04-13T00:28:05.899Z,14.80
2018-04-13T00:30:33.442Z,14.80
2018-04-13T00:33:01.883Z,14.80
2018-04-13T00:35:29.436Z,14.70
2018-04-13T00:37:57.509Z,14.80
2018-04-13T00:40:25.110Z,14.70
2018-04-13T00:42:52.684Z,14.70
2018-04-13T00:45:20.236Z,14.80
2018-04-13T00:47:47.801Z,14.80
2018-04-13T00:50:15.350Z,14.80
2018-04-13T00:52:43.723Z,14.90
2018-04-13T00:55:11.278Z,14.90
2018-04-13T00:57:38.834Z,14.80
2018-04-13T01:00:07.224Z,14.90
2018-04-13T01:02:34.779Z,14.80
2018-04-13T01:05:02.347Z,14.80
2018-04-13T01:07:36.056Z,14.80
2018-04-13T01:10:03.632Z,14.70
2018-04-13T01:12:31.190Z,14.70
2018-04-13T01:14:59.523Z,14.70
2018-04-13T01:17:27.067Z,14.60
2018-04-13T01:19:54.636Z,14.70
2018-04-13T01:22:22.187Z,14.60
2018-04-13T01:24:50.523Z,14.60
2018-04-13T01:27:18.076Z,14.60
2018-04-13T01:29:45.643Z,14.60
2018-04-13T01:32:13.199Z,14.70
2018-04-13T01:34:41.534Z,14.70
2018-04-13T01:37:09.095Z,14.60
2018-04-13T01:39:36.679Z,14.70
2018-04-13T01:42:04.234Z,14.70
2018-04-13T01:44:31.807Z,14.70
2018-04-13T01:46:59.360Z,14.70
2018-04-13T01:49:26.927Z,14.60
2018-04-13T01:51:54.494Z,14.60
2018-04-13T01:54:22.044Z,14.60
2018-04-13T01:56:49.623Z,14.60
2018-04-13T01:59:17.942Z,14.60
2018-04-13T02:01:45.510Z,14.60
2018-04-13T02:04:13.058Z,14.60
2018-04-13T02:06:41.390Z,14.60
2018-04-13T02:09:08.935Z,14.60
2018-04-13T02:11:36.503Z,14.60
2018-04-13T02:14:04.047Z,14.60
2018-04-13T02:16:31.623Z,14.70
2018-04-13T02:18:59.948Z,14.60
2018-04-13T02:21:27.554Z,14.70
2018-04-13T02:23:55.088Z,14.70
2018-04-13T02:26:22.667Z,14.70
2018-04-13T02:28:50.215Z,14.70
2018-04-13T02:31:18.556Z,14.70
2018-04-13T02:33:46.098Z,14.70
2018-04-13T02:36:13.668Z,14.70
2018-04-13T02:38:41.224Z,14.70
2018-04-13T02:41:08.805Z,14.70
2018-04-13T02:43:36.355Z,14.70
2018-04-13T02:46:04.687Z,14.70
2018-04-13T02:48:32.234Z,14.70
2018-04-13T02:50:59.807Z,14.70
2018-04-13T02:53:27.352Z,14.70
2018-04-13T02:55:55.683Z,14.60
2018-04-13T02:58:23.244Z,14.60
2018-04-13T03:00:50.800Z,14.60
2018-04-13T03:03:19.134Z,14.60
2018-04-13T03:05:47.456Z,14.60
2018-04-13T03:08:15.031Z,14.60
2018-04-13T03:10:43.356Z,14.60
2018-04-13T03:13:10.922Z,14.60
2018-04-13T03:15:38.480Z,14.60
2018-04-13T03:18:06.810Z,14.50
2018-04-13T03:20:34.354Z,14.50
2018-04-13T03:23:01.922Z,14.50
2018-04-13T03:25:29.476Z,14.50
2018-04-13T03:27:57.810Z,14.50
2018-04-13T03:30:25.364Z,14.50
2018-04-13T03:32:52.930Z,14.50
2018-04-13T03:35:20.476Z,14.50
2018-04-13T03:37:48.050Z,14.40
2018-04-13T03:40:16.368Z,14.40
2018-04-13T03:42:43.940Z,14.40
2018-04-13T03:45:11.486Z,14.40
2018-04-13T03:47:39.821Z,14.40
2018-04-13T03:50:07.371Z,14.40
2018-04-13T03:52:34.936Z,14.40
2018-04-13T03:55:02.482Z,14.40
2018-04-13T03:57:30.047Z,14.40
2018-04-13T03:59:57.594Z,14.40
2018-04-13T04:02:25.165Z,14.40
2018-04-13T04:04:52.718Z,14.40
2018-04-13T04:07:20.286Z,14.40
2018-04-13T04:09:47.835Z,14.40
2018-04-13T04:12:15.556Z,14.30
2018-04-13T04:14:44.069Z,14.30
2018-04-13T04:17:11.650Z,14.30
2018-04-13T04:19:51.029Z,14.30
2018-04-13T04:22:30.574Z,14.30
2018-04-13T04:25:10.581Z,14.40
2018-04-13T04:27:38.170Z,14.30
2018-04-13T04:30:07.238Z,14.40
2018-04-13T04:32:34.787Z,14.50
2018-04-13T04:35:02.362Z,14.50
2018-04-13T04:37:29.924Z,14.60
2018-04-13T04:39:58.262Z,14.80
2018-04-13T04:42:25.807Z,14.80
2018-04-13T04:44:53.376Z,14.90
2018-04-13T04:47:20.923Z,14.90
2018-04-13T04:49:49.262Z,14.80
2018-04-13T04:52:16.811Z,14.70
2018-04-13T04:54:44.384Z,14.70
2018-04-13T04:57:11.934Z,14.70
2018-04-13T04:59:40.293Z,14.50
2018-04-13T05:02:07.847Z,14.50
2018-04-13T05:04:35.423Z,14.40
2018-04-13T05:07:03.745Z,14.40
2018-04-13T05:09:31.315Z,14.30
2018-04-13T05:11:58.859Z,14.30
2018-04-13T05:14:26.456Z,14.30
2018-04-13T05:16:54.007Z,14.30
2018-04-13T05:19:21.555Z,14.30
2018-04-13T05:21:49.131Z,14.30
2018-04-13T05:24:16.792Z,14.30
2018-04-13T05:26:44.363Z,14.30
2018-04-13T05:29:11.907Z,14.30
2018-04-13T05:31:40.244Z,14.30
2018-04-13T05:34:08.562Z,14.30
2018-04-13T05:36:36.127Z,14.30
2018-04-13T05:39:03.678Z,14.30
2018-04-13T05:41:31.244Z,14.40
2018-04-13T05:43:58.795Z,14.40
2018-04-13T05:46:26.360Z,14.50
2018-04-13T05:48:53.909Z,14.50
2018-04-13T05:51:22.238Z,14.50
2018-04-13T05:53:49.781Z,14.40
2018-04-13T05:56:17.354Z,14.40
2018-04-13T05:58:44.901Z,14.40
2018-04-13T06:01:13.269Z,14.40
2018-04-13T06:03:40.813Z,14.40
2018-04-13T06:06:08.447Z,14.40
2018-04-13T06:08:35.959Z,14.50
2018-04-13T06:11:03.526Z,14.50
2018-04-13T06:13:31.101Z,14.40
2018-04-13T06:15:58.676Z,14.30
2018-04-13T06:18:26.229Z,14.30
2018-04-13T06:20:53.799Z,14.30
2018-04-13T06:23:21.355Z,14.30
2018-04-13T06:25:49.707Z,14.40
2018-04-13T06:28:17.256Z,14.30
2018-04-13T06:30:44.812Z,14.40
2018-04-13T06:33:12.379Z,14.40
2018-04-13T06:35:39.929Z,14.40
2018-04-13T06:38:08.263Z,14.30
2018-04-13T06:40:35.823Z,14.30
2018-04-13T06:43:03.398Z,14.20
2018-04-13T06:45:30.945Z,14.20
2018-04-13T06:47:58.511Z,14.10
2018-04-13T06:50:26.827Z,14.20
2018-04-13T06:52:54.395Z,14.20
2018-04-13T06:55:21.951Z,14.10
2018-04-13T06:57:49.524Z,14.10
2018-04-13T07:00:17.075Z,14.00
2018-04-13T07:02:45.414Z,14.00
2018-04-13T07:05:12.964Z,14.00
2018-04-13T07:07:40.542Z,14.00
2018-04-13T07:10:08.095Z,14.00
2018-04-13T07:12:35.667Z,14.00
2018-04-13T07:15:03.217Z,14.00
2018-04-13T07:17:31.568Z,14.10
2018-04-13T07:19:59.116Z,14.00
2018-04-13T07:22:26.683Z,14.10
2018-04-13T07:24:54.241Z,14.00
2018-04-13T07:27:21.826Z,14.10
2018-04-13T07:29:49.380Z,14.10
2018-04-13T07:32:16.969Z,14.10
2018-04-13T07:34:44.524Z,14.20
2018-04-13T07:37:12.121Z,14.30
2018-04-13T07:39:40.002Z,14.40
2018-04-13T07:42:07.243Z,14.50
2018-04-13T07:44:34.815Z,14.60
2018-04-13T07:47:02.371Z,14.70
2018-04-13T07:49:30.710Z,15.00
2018-04-13T07:51:58.279Z,15.00
2018-04-13T07:54:25.852Z,15.40
2018-04-13T07:56:53.407Z,15.80
2018-04-13T07:59:21.314Z,16.20
2018-04-13T08:01:49.069Z,16.60
2018-04-13T08:04:16.146Z,17.10
2018-04-13T08:06:44.079Z,17.40
2018-04-13T08:09:12.143Z,18.20
2018-04-13T08:11:39.706Z,18.10
2018-04-13T08:14:07.277Z,18.20
2018-04-13T08:16:34.823Z,18.20
2018-04-13T08:19:02.387Z,18.10
2018-04-13T08:21:29.947Z,17.90
2018-04-13T08:23:57.519Z,18.00
2018-04-13T08:26:25.071Z,18.10
2018-04-13T08:28:52.638Z,18.30
2018-04-13T08:31:20.951Z,18.40
2018-04-13T08:33:48.526Z,18.30
2018-04-13T08:36:17.210Z,18.50
2018-04-13T08:38:44.798Z,18.80
2018-04-13T08:41:12.354Z,18.90
2018-04-13T08:43:39.927Z,19.20
2018-04-13T08:46:07.480Z,19.30
2018-04-13T08:48:35.915Z,19.60
2018-04-13T08:51:03.411Z,19.60
2018-04-13T08:53:30.967Z,20.00
2018-04-13T08:55:58.538Z,20.00
2018-04-13T08:58:26.087Z,20.10
2018-04-13T09:00:53.708Z,20.00
2018-04-13T09:03:21.236Z,20.20
2018-04-13T09:05:48.802Z,20.30
2018-04-13T09:08:16.355Z,20.30
2018-04-13T09:10:43.932Z,20.60
2018-04-13T09:13:11.492Z,20.90
2018-04-13T09:15:39.822Z,21.20
2018-04-13T09:18:07.375Z,21.20
2018-04-13T09:20:34.942Z,21.50
2018-04-13T09:23:02.494Z,21.40
2018-04-13T09:25:30.831Z,21.30
2018-04-13T09:27:58.420Z,21.30
2018-04-13T09:30:26.738Z,20.60
2018-04-13T09:32:55.053Z,20.50
2018-04-13T09:35:22.623Z,20.50
2018-04-13T09:37:50.179Z,20.80
2018-04-13T09:40:17.775Z,21.10
2018-04-13T09:42:45.318Z,21.10
2018-04-13T09:45:12.897Z,21.50
2018-04-13T09:47:40.445Z,21.90
2018-04-13T09:50:08.015Z,22.00
2018-04-13T09:52:35.558Z,21.90
2018-04-13T09:55:03.128Z,21.90
2018-04-13T09:57:30.679Z,21.70
2018-04-13T09:59:58.276Z,21.80
2018-04-13T10:02:40.709Z,21.60
2018-04-13T10:05:13.978Z,21.70
2018-04-13T10:07:41.531Z,21.80
2018-04-13T10:10:09.086Z,21.80
2018-04-13T10:12:37.427Z,21.90
2018-04-13T10:15:04.975Z,21.90
2018-04-13T10:17:32.546Z,22.10
2018-04-13T10:20:00.095Z,22.20
2018-04-13T10:22:28.432Z,22.50
2018-04-13T10:24:55.999Z,22.50
2018-04-13T10:27:23.602Z,22.60
2018-04-13T10:29:51.137Z,22.60
2018-04-13T10:32:18.699Z,22.60
2018-04-13T10:34:46.256Z,22.50
2018-04-13T10:37:13.827Z,22.00
2018-04-13T10:39:41.383Z,21.70
2018-04-13T10:42:09.719Z,21.40
2018-04-13T10:44:37.275Z,21.40
2018-04-13T10:47:04.855Z,21.50
2018-04-13T10:49:32.398Z,21.40
2018-04-13T10:52:00.732Z,21.70
2018-04-13T10:54:28.279Z,21.70
2018-04-13T10:56:55.852Z,22.00
2018-04-13T10:59:23.407Z,21.90
2018-04-13T11:01:50.981Z,22.00
2018-04-13T11:04:18.527Z,22.10
2018-04-13T11:06:46.854Z,21.80
2018-04-13T11:09:14.403Z,21.80
2018-04-13T11:11:41.986Z,21.90
2018-04-13T11:14:09.535Z,21.90
2018-04-13T11:16:37.863Z,21.70
2018-04-13T11:19:05.420Z,21.70
2018-04-13T11:21:32.988Z,21.50
2018-04-13T11:24:00.554Z,21.40
2018-04-13T11:26:28.102Z,21.40
2018-04-13T11:28:55.673Z,21.30
2018-04-13T11:31:23.220Z,21.20
2018-04-13T11:33:50.811Z,21.00
2018-04-13T11:36:18.363Z,20.80
2018-04-13T11:38:45.922Z,20.80
2018-04-13T11:41:13.472Z,20.80
2018-04-13T11:43:41.042Z,20.90
2018-04-13T11:46:08.591Z,20.80
2018-04-13T11:48:36.923Z,20.90
2018-04-13T11:51:04.471Z,20.90
2018-04-13T11:53:32.033Z,20.90
2018-04-13T11:55:59.583Z,20.70
2018-04-13T11:58:27.918Z,20.50
2018-04-13T12:00:55.471Z,20.50
2018-04-13T12:03:23.035Z,20.40
2018-04-13T12:05:50.644Z,20.40
2018-04-13T12:08:18.180Z,20.30
2018-04-13T12:10:45.731Z,20.30
2018-04-13T12:13:14.070Z,20.20
2018-04-13T12:15:41.638Z,20.20
2018-04-13T12:18:09.373Z,20.20
2018-04-13T12:20:37.686Z,20.30
2018-04-13T12:23:05.266Z,20.30
2018-04-13T12:25:32.914Z,20.20
2018-04-13T12:28:01.248Z,20.40
2018-04-13T12:30:28.799Z,20.40
2018-04-13T12:32:56.368Z,20.40
2018-04-13T12:35:23.916Z,20.30
2018-04-13T12:37:52.234Z,20.70
2018-04-13T12:40:19.812Z,20.70
2018-04-13T12:42:47.382Z,20.90
2018-04-13T12:45:14.954Z,20.90
2018-04-13T12:47:42.509Z,20.90
2018-04-13T12:50:10.088Z,20.80
2018-04-13T12:52:37.673Z,20.60
2018-04-13T12:55:05.429Z,20.50
2018-04-13T12:57:33.599Z,20.40
2018-04-13T13:00:01.942Z,20.30
2018-04-13T13:02:29.494Z,20.30
2018-04-13T13:04:57.068Z,20.30
2018-04-13T13:07:24.620Z,20.20
2018-04-13T13:09:52.197Z,20.20
2018-04-13T13:12:19.771Z,20.20
2018-04-13T13:14:47.345Z,20.10
2018-04-13T13:17:14.891Z,20.00
2018-04-13T13:19:43.228Z,19.90
2018-04-13T13:22:10.811Z,19.90
2018-04-13T13:24:39.142Z,19.80
2018-04-13T13:27:07.456Z,19.70
2018-04-13T13:29:35.017Z,19.70
2018-04-13T13:32:02.576Z,19.70
2018-04-13T13:34:30.907Z,19.90
2018-04-13T13:36:58.452Z,19.80
2018-04-13T13:39:26.047Z,19.90
2018-04-13T13:41:53.641Z,20.00
2018-04-13T13:44:21.188Z,20.10
2018-04-13T13:46:48.785Z,20.10
2018-04-13T13:49:17.170Z,20.00
2018-04-13T13:51:44.733Z,20.00
2018-04-13T13:54:12.285Z,20.00
2018-04-13T13:56:40.462Z,19.90
2018-04-13T13:59:08.026Z,19.90
2018-04-13T14:01:35.591Z,20.00
2018-04-13T14:04:03.912Z,20.00
2018-04-13T14:06:31.487Z,20.00
2018-04-13T14:08:59.034Z,20.00
2018-04-13T14:11:26.608Z,20.10
2018-04-13T14:13:54.166Z,20.20
2018-04-13T14:16:21.746Z,20.20
2018-04-13T14:18:49.301Z,20.30
2018-04-13T14:21:17.634Z,20.30
2018-04-13T14:23:45.187Z,20.30
2018-04-13T14:26:12.752Z,20.30
2018-04-13T14:28:40.328Z,20.30
2018-04-13T14:31:07.894Z,20.30
2018-04-13T14:33:35.442Z,20.20
2018-04-13T14:36:03.768Z,20.20
2018-04-13T14:38:31.327Z,20.10
2018-04-13T14:40:58.985Z,20.10
2018-04-13T14:43:27.292Z,20.00
2018-04-13T14:46:00.692Z,20.10
2018-04-13T14:48:29.165Z,20.00
2018-04-13T14:50:56.991Z,20.00
2018-04-13T14:53:25.241Z,20.00
2018-04-13T14:55:53.184Z,20.10
2018-04-13T14:58:20.879Z,20.10
2018-04-13T15:00:48.688Z,20.10
2018-04-13T15:03:16.484Z,20.20
2018-04-13T15:05:45.130Z,20.20
2018-04-13T15:08:18.039Z,20.30
2018-04-13T15:10:46.405Z,20.30
2018-04-13T15:13:14.734Z,20.30
2018-04-13T15:15:43.871Z,20.40
2018-04-13T15:18:12.071Z,20.30
2018-04-13T15:20:39.624Z,20.40
2018-04-13T15:23:07.195Z,20.40
2018-04-13T15:25:34.743Z,20.40
2018-04-13T15:28:03.084Z,20.40
2018-04-13T15:30:31.446Z,20.30
2018-04-13T15:33:00.071Z,20.40
2018-04-13T15:35:27.618Z,20.40
2018-04-13T15:37:55.178Z,20.30
2018-04-13T15:40:22.749Z,20.30
2018-04-13T15:42:50.335Z,20.30
2018-04-13T15:45:17.885Z,20.30
2018-04-13T15:47:45.458Z,20.30
2018-04-13T15:50:13.764Z,20.20
2018-04-13T15:52:41.340Z,20.20
2018-04-13T15:55:08.886Z,20.10
2018-04-13T15:57:37.413Z,20.00
2018-04-13T16:00:04.971Z,20.00
2018-04-13T16:02:32.534Z,20.00
2018-04-13T16:05:00.087Z,19.90
2018-04-13T16:07:28.423Z,20.00
2018-04-13T16:09:55.978Z,19.90
2018-04-13T16:12:23.541Z,20.00
2018-04-13T16:14:51.087Z,20.00
2018-04-13T16:17:19.432Z,20.00
2018-04-13T16:19:49.336Z,20.00
2018-04-13T16:22:17.767Z,20.00
2018-04-13T16:24:46.082Z,20.00
2018-04-13T16:27:14.398Z,19.90
2018-04-13T16:29:41.963Z,19.90
2018-04-13T16:32:10.275Z,19.90
2018-04-13T16:34:37.842Z,19.90
2018-04-13T16:37:05.393Z,19.90
2018-04-13T16:39:39.779Z,19.90
2018-04-13T16:42:07.513Z,19.90
2018-04-13T16:44:35.079Z,19.80
2018-04-13T16:47:02.668Z,19.80
2018-04-13T16:49:30.239Z,19.80
2018-04-13T16:51:57.807Z,19.70
2018-04-13T16:54:25.406Z,19.60
2018-04-13T16:56:52.943Z,19.60
2018-04-13T16:59:21.444Z,19.60
2018-04-13T17:01:48.991Z,19.50
2018-04-13T17:04:17.334Z,19.50
2018-04-13T17:06:45.674Z,19.50
2018-04-13T17:09:14.018Z,19.40
2018-04-13T17:11:41.565Z,19.40
2018-04-13T17:14:15.811Z,19.40
2018-04-13T17:16:43.327Z,19.30
2018-04-13T17:19:11.664Z,19.10
2018-04-13T17:21:39.219Z,19.10
2018-04-13T17:24:06.783Z,19.00
2018-04-13T17:26:34.344Z,19.00
2018-04-13T17:29:06.620Z,18.90
2018-04-13T17:31:38.020Z,18.80
2018-04-13T17:34:06.719Z,18.70
2018-04-13T17:36:34.272Z,18.70
2018-04-13T17:39:01.853Z,18.60
2018-04-13T17:41:29.419Z,18.60
2018-04-13T17:43:56.982Z,18.50
2018-04-13T17:46:24.548Z,18.40
2018-04-13T17:48:52.089Z,18.40
2018-04-13T17:51:19.663Z,18.30
2018-04-13T17:53:47.223Z,18.30
2018-04-13T17:56:15.038Z,18.20
2018-04-13T17:58:42.755Z,18.10
2018-04-13T18:01:10.549Z,18.00
2018-04-13T18:03:39.094Z,17.80
2018-04-13T18:06:07.480Z,17.70
2018-04-13T18:08:41.317Z,17.60
2018-04-13T18:11:09.332Z,17.60
2018-04-13T18:13:36.887Z,17.50
2018-04-13T18:16:04.484Z,17.40
2018-04-13T18:18:32.035Z,17.20
2018-04-13T18:20:59.821Z,17.20
2018-04-13T18:23:28.404Z,17.00
2018-04-13T18:25:56.971Z,16.90
2018-04-13T18:28:24.747Z,16.90
2018-04-13T18:30:52.612Z,16.90
2018-04-13T18:33:26.899Z,16.70
2018-04-13T18:36:00.738Z,16.70
2018-04-13T18:38:29.029Z,16.60
2018-04-13T18:40:57.389Z,16.50
2018-04-13T18:43:24.939Z,16.50
2018-04-13T18:45:52.514Z,16.40
2018-04-13T18:48:20.069Z,16.40
2018-04-13T18:50:47.644Z,16.30
2018-04-13T18:53:15.198Z,16.30
2018-04-13T18:55:42.776Z,16.20
2018-04-13T18:58:10.411Z,16.20
2018-04-13T19:00:37.927Z,16.20
2018-04-13T19:03:05.499Z,16.10
2018-04-13T19:05:33.062Z,16.10
2018-04-13T19:08:00.635Z,16.00
2018-04-13T19:10:28.951Z,16.00
2018-04-13T19:12:56.531Z,16.00
2018-04-13T19:15:24.079Z,15.90
2018-04-13T19:17:51.646Z,15.90
2018-04-13T19:20:19.204Z,15.80
2018-04-13T19:22:47.550Z,15.60
2018-04-13T19:25:15.099Z,15.60
2018-04-13T19:27:42.671Z,15.60
2018-04-13T19:30:10.234Z,15.50
2018-04-13T19:32:37.810Z,15.50
2018-04-13T19:35:06.168Z,15.40
2018-04-13T19:37:34.504Z,15.60
2018-04-13T19:40:02.055Z,15.50
2018-04-13T19:42:29.628Z,15.60
2018-04-13T19:44:57.189Z,15.60
2018-04-13T19:47:24.756Z,15.60
2018-04-13T19:49:52.306Z,15.60
2018-04-13T19:52:19.875Z,15.60
2018-04-13T19:54:48.196Z,15.50
2018-04-13T19:57:15.763Z,15.50
2018-04-13T19:59:46.355Z,15.40
2018-04-13T20:02:15.287Z,15.30
2018-04-13T20:04:42.891Z,15.30
2018-04-13T20:07:10.467Z,15.30
2018-04-13T20:09:38.018Z,15.30
2018-04-13T20:12:06.328Z,15.10
2018-04-13T20:14:33.898Z,15.10
2018-04-13T20:17:01.442Z,15.10
2018-04-13T20:19:29.811Z,15.00
2018-04-13T20:21:57.359Z,15.10
2018-04-13T20:24:25.141Z,15.00
2018-04-13T20:26:53.091Z,14.90
2018-04-13T20:29:20.668Z,14.80
2018-04-13T20:31:48.220Z,14.70
2018-04-13T20:34:15.796Z,14.60
2018-04-13T20:36:43.335Z,14.40
2018-04-13T20:39:10.904Z,14.30
2018-04-13T20:41:38.463Z,14.30
2018-04-13T20:44:06.028Z,14.30
2018-04-13T20:46:33.573Z,14.20
2018-04-13T20:49:01.160Z,14.00
2018-04-13T20:51:28.712Z,13.90
2018-04-13T20:53:56.279Z,13.90
2018-04-13T20:56:23.818Z,13.70
2018-04-13T20:58:51.386Z,13.70
2018-04-13T21:01:18.955Z,13.60
2018-04-13T21:03:47.305Z,13.40
2018-04-13T21:06:14.855Z,13.30
2018-04-13T21:08:42.404Z,13.30
2018-04-13T21:11:10.757Z,13.20
2018-04-13T21:13:38.302Z,13.20
2018-04-13T21:16:05.895Z,13.20
2018-04-13T21:18:33.447Z,13.20
2018-04-13T21:21:01.119Z,13.20
2018-04-13T21:23:28.730Z,13.10
2018-04-13T21:25:56.319Z,13.00
2018-04-13T21:28:24.635Z,12.80
2018-04-13T21:30:52.203Z,12.80
2018-04-13T21:33:19.773Z,12.80
2018-04-13T21:35:47.342Z,12.70
2018-04-13T21:38:14.911Z,12.70
2018-04-13T21:40:42.501Z,12.70
2018-04-13T21:43:10.044Z,12.80
2018-04-13T21:45:38.617Z,13.00
2018-04-13T21:48:06.187Z,13.00
2018-04-13T21:50:33.787Z,13.00
2018-04-13T21:53:01.355Z,13.00
2018-04-13T21:55:29.691Z,13.00
2018-04-13T21:57:57.250Z,13.00
2018-04-13T22:00:24.831Z,13.10
2018-04-13T22:02:52.379Z,13.10
2018-04-13T22:05:19.942Z,13.10
2018-04-13T22:07:47.501Z,13.10
2018-04-13T22:10:15.835Z,13.10
2018-04-13T22:12:55.199Z,13.10
2018-04-13T22:15:26.517Z,13.10
2018-04-13T22:17:54.059Z,13.10
2018-04-13T22:20:21.618Z,13.10
2018-04-13T22:22:49.204Z,13.10
2018-04-13T22:25:17.551Z,13.00
2018-04-13T22:27:45.126Z,13.00
2018-04-13T22:30:12.678Z,13.00
2018-04-13T22:32:40.252Z,12.90
2018-04-13T22:35:07.803Z,12.90
2018-04-13T22:37:35.375Z,12.90
2018-04-13T22:40:02.922Z,12.90
2018-04-13T22:42:31.276Z,13.00
2018-04-13T22:44:58.833Z,13.00
2018-04-13T22:47:26.415Z,13.10
2018-04-13T22:49:53.971Z,13.10
2018-04-13T22:52:21.546Z,13.10
2018-04-13T22:54:49.098Z,13.10
2018-04-13T22:57:16.667Z,13.00
2018-04-13T22:59:44.223Z,13.00
2018-04-13T23:02:12.559Z,13.00
2018-04-13T23:04:40.112Z,13.00
2018-04-13T23:07:07.666Z,12.90
2018-04-13T23:09:35.216Z,12.80
2018-04-13T23:12:02.816Z,12.80
2018-04-13T23:14:30.372Z,12.80
2018-04-13T23:16:58.707Z,12.90
2018-04-13T23:19:27.025Z,13.00
2018-04-13T23:21:54.600Z,13.00
2018-04-13T23:24:22.143Z,13.10
2018-04-13T23:26:49.710Z,13.20
2018-04-13T23:29:17.292Z,13.20
2018-04-13T23:31:44.859Z,13.20
2018-04-13T23:34:12.463Z,13.20
2018-04-13T23:36:40.575Z,13.20
2018-04-13T23:39:08.142Z,13.10
2018-04-13T23:41:35.700Z,13.10
2018-04-13T23:44:04.038Z,13.10
2018-04-13T23:46:31.591Z,13.10
2018-04-13T23:48:59.175Z,13.10
2018-04-13T23:51:26.722Z,13.10
2018-04-13T23:53:55.053Z,13.10
2018-04-13T23:56:22.609Z,13.00
2018-04-13T23:58:50.188Z,13.10
